sensor_id;sensor_type;location;lat;lon;timestamp;pressure;altitude;pressure_sealevel;temperature;humidity
71996;BME280;59862;47.732;7.346;2024-01-27T00:00:36;99854.27;;;3.28;89.80
71996;BME280;59862;47.732;7.346;2024-01-27T00:03:04;99860.64;;;3.52;89.51
71996;BME280;59862;47.732;7.346;2024-01-27T00:05:31;99862.67;;;3.36;89.15
71996;BME280;59862;47.732;7.346;2024-01-27T00:07:59;99865.05;;;3.29;89.31
71996;BME280;59862;47.732;7.346;2024-01-27T00:10:26;99863.94;;;3.10;89.34
71996;BME280;59862;47.732;7.346;2024-01-27T00:12:54;99862.72;;;3.00;89.58
71996;BME280;59862;47.732;7.346;2024-01-27T00:15:21;99862.98;;;2.89;89.66
71996;BME280;59862;47.732;7.346;2024-01-27T00:17:49;99865.33;;;2.79;90.06
71996;BME280;59862;47.732;7.346;2024-01-27T00:20:17;99865.26;;;2.71;90.27
71996;BME280;59862;47.732;7.346;2024-01-27T00:22:44;99866.84;;;2.68;90.37
71996;BME280;59862;47.732;7.346;2024-01-27T00:25:11;99866.63;;;2.61;90.42
71996;BME280;59862;47.732;7.346;2024-01-27T00:27:39;99870.76;;;2.50;90.61
71996;BME280;59862;47.732;7.346;2024-01-27T00:30:07;99873.97;;;2.44;90.83
71996;BME280;59862;47.732;7.346;2024-01-27T00:32:34;99875.84;;;2.38;90.81
71996;BME280;59862;47.732;7.346;2024-01-27T00:35:02;99878.42;;;2.34;90.77
71996;BME280;59862;47.732;7.346;2024-01-27T00:37:29;99889.27;;;2.25;90.85
71996;BME280;59862;47.732;7.346;2024-01-27T00:39:57;99883.11;;;2.30;91.06
71996;BME280;59862;47.732;7.346;2024-01-27T00:42:24;99885.91;;;2.19;90.99
71996;BME280;59862;47.732;7.346;2024-01-27T00:44:51;99888.44;;;2.24;91.00
71996;BME280;59862;47.732;7.346;2024-01-27T00:47:19;99888.52;;;2.19;90.94
71996;BME280;59862;47.732;7.346;2024-01-27T00:49:46;99882.92;;;2.14;90.79
71996;BME280;59862;47.732;7.346;2024-01-27T00:52:14;99891.53;;;2.24;90.45
71996;BME280;59862;47.732;7.346;2024-01-27T00:54:41;99893.42;;;2.18;90.21
71996;BME280;59862;47.732;7.346;2024-01-27T00:57:08;99882.65;;;2.17;90.19
71996;BME280;59862;47.732;7.346;2024-01-27T00:59:36;99889.36;;;2.06;90.05
71996;BME280;59862;47.732;7.346;2024-01-27T01:02:04;99890.42;;;1.99;90.08
71996;BME280;59862;47.732;7.346;2024-01-27T01:04:31;99893.93;;;1.94;90.27
71996;BME280;59862;47.732;7.346;2024-01-27T01:06:59;99893.83;;;1.86;90.45
71996;BME280;59862;47.732;7.346;2024-01-27T01:09:27;99904.13;;;1.87;90.58
71996;BME280;59862;47.732;7.346;2024-01-27T01:11:54;99891.14;;;2.05;90.73
71996;BME280;59862;47.732;7.346;2024-01-27T01:14:22;99890.25;;;2.01;90.66
71996;BME280;59862;47.732;7.346;2024-01-27T01:16:49;99892.55;;;2.00;90.62
71996;BME280;59862;47.732;7.346;2024-01-27T01:19:16;99894.41;;;1.94;90.61
71996;BME280;59862;47.732;7.346;2024-01-27T01:21:44;99897.13;;;2.15;90.81
71996;BME280;59862;47.732;7.346;2024-01-27T01:24:11;99893.13;;;2.07;90.70
71996;BME280;59862;47.732;7.346;2024-01-27T01:26:39;99896.22;;;2.07;90.72
71996;BME280;59862;47.732;7.346;2024-01-27T01:29:06;99897.32;;;2.04;90.70
71996;BME280;59862;47.732;7.346;2024-01-27T01:31:34;99899.77;;;1.92;90.64
71996;BME280;59862;47.732;7.346;2024-01-27T01:34:01;99904.39;;;1.84;90.77
71996;BME280;59862;47.732;7.346;2024-01-27T01:36:29;99901.99;;;1.87;90.91
71996;BME280;59862;47.732;7.346;2024-01-27T01:38:56;99902.09;;;1.81;90.97
71996;BME280;59862;47.732;7.346;2024-01-27T01:41:23;99906.77;;;1.78;91.13
71996;BME280;59862;47.732;7.346;2024-01-27T01:43:51;99907.38;;;1.76;91.22
71996;BME280;59862;47.732;7.346;2024-01-27T01:46:18;99913.17;;;1.70;91.28
71996;BME280;59862;47.732;7.346;2024-01-27T01:48:46;99913.79;;;1.68;91.32
71996;BME280;59862;47.732;7.346;2024-01-27T01:51:14;99910.59;;;1.60;91.35
71996;BME280;59862;47.732;7.346;2024-01-27T01:53:41;99913.23;;;1.64;91.56
71996;BME280;59862;47.732;7.346;2024-01-27T01:56:09;99910.77;;;1.72;91.67
71996;BME280;59862;47.732;7.346;2024-01-27T01:58:36;99910.36;;;1.67;91.75
71996;BME280;59862;47.732;7.346;2024-01-27T02:01:04;99907.23;;;1.64;91.73
71996;BME280;59862;47.732;7.346;2024-01-27T02:03:31;99910.59;;;1.60;91.77
71996;BME280;59862;47.732;7.346;2024-01-27T02:05:59;99915.83;;;1.50;91.68
71996;BME280;59862;47.732;7.346;2024-01-27T02:08:26;99921.25;;;1.53;91.76
71996;BME280;59862;47.732;7.346;2024-01-27T02:10:54;99918.06;;;1.59;91.80
71996;BME280;59862;47.732;7.346;2024-01-27T02:13:24;99927.53;;;1.60;91.78
71996;BME280;59862;47.732;7.346;2024-01-27T02:15:53;99927.63;;;1.55;91.76
71996;BME280;59862;47.732;7.346;2024-01-27T02:18:20;99927.11;;;1.55;91.70
71996;BME280;59862;47.732;7.346;2024-01-27T02:20:48;99944.22;;;1.54;91.66
71996;BME280;59862;47.732;7.346;2024-01-27T02:23:15;99943.74;;;1.54;91.61
71996;BME280;59862;47.732;7.346;2024-01-27T02:25:42;99940.37;;;1.48;91.58
71996;BME280;59862;47.732;7.346;2024-01-27T02:28:10;99929.93;;;1.58;91.69
71996;BME280;59862;47.732;7.346;2024-01-27T02:30:39;99937.11;;;1.69;91.72
71996;BME280;59862;47.732;7.346;2024-01-27T02:33:07;99937.16;;;1.73;91.69
71996;BME280;59862;47.732;7.346;2024-01-27T02:35:34;99941.75;;;1.75;91.64
71996;BME280;59862;47.732;7.346;2024-01-27T02:38:02;99944.77;;;1.80;91.63
71996;BME280;59862;47.732;7.346;2024-01-27T02:40:29;99945.43;;;1.82;91.58
71996;BME280;59862;47.732;7.346;2024-01-27T02:42:57;99943.38;;;1.86;91.44
71996;BME280;59862;47.732;7.346;2024-01-27T02:45:24;99945.19;;;1.76;91.29
71996;BME280;59862;47.732;7.346;2024-01-27T02:47:52;99942.53;;;1.72;91.31
71996;BME280;59862;47.732;7.346;2024-01-27T02:50:19;99952.02;;;1.63;91.32
71996;BME280;59862;47.732;7.346;2024-01-27T02:52:46;99947.48;;;1.56;91.37
71996;BME280;59862;47.732;7.346;2024-01-27T02:55:14;99952.44;;;1.49;91.40
71996;BME280;59862;47.732;7.346;2024-01-27T02:57:41;99952.20;;;1.33;91.33
71996;BME280;59862;47.732;7.346;2024-01-27T03:00:10;99946.64;;;1.32;91.36
71996;BME280;59862;47.732;7.346;2024-01-27T03:02:37;99950.50;;;1.18;91.34
71996;BME280;59862;47.732;7.346;2024-01-27T03:05:05;99951.33;;;1.09;91.39
71996;BME280;59862;47.732;7.346;2024-01-27T03:07:35;99958.15;;;1.00;91.44
71996;BME280;59862;47.732;7.346;2024-01-27T03:10:02;99958.70;;;0.94;91.55
71996;BME280;59862;47.732;7.346;2024-01-27T03:12:30;99949.80;;;0.97;91.62
71996;BME280;59862;47.732;7.346;2024-01-27T03:14:59;99956.52;;;0.90;91.67
71996;BME280;59862;47.732;7.346;2024-01-27T03:17:26;99946.28;;;0.83;91.71
71996;BME280;59862;47.732;7.346;2024-01-27T03:19:54;99949.09;;;0.75;91.71
71996;BME280;59862;47.732;7.346;2024-01-27T03:22:22;99946.58;;;0.80;91.77
71996;BME280;59862;47.732;7.346;2024-01-27T03:24:49;99958.75;;;0.69;91.78
71996;BME280;59862;47.732;7.346;2024-01-27T03:27:18;99957.31;;;0.71;91.80
71996;BME280;59862;47.732;7.346;2024-01-27T03:29:46;99962.78;;;0.68;91.82
71996;BME280;59862;47.732;7.346;2024-01-27T03:32:14;99963.02;;;0.55;91.81
71996;BME280;59862;47.732;7.346;2024-01-27T03:34:45;99965.23;;;0.60;91.90
71996;BME280;59862;47.732;7.346;2024-01-27T03:37:12;99959.66;;;0.49;91.87
71996;BME280;59862;47.732;7.346;2024-01-27T03:39:42;99968.38;;;0.54;91.87
71996;BME280;59862;47.732;7.346;2024-01-27T03:42:09;99964.48;;;0.54;91.83
71996;BME280;59862;47.732;7.346;2024-01-27T03:44:36;99967.81;;;0.50;91.83
71996;BME280;59862;47.732;7.346;2024-01-27T03:47:04;99966.89;;;0.46;91.83
71996;BME280;59862;47.732;7.346;2024-01-27T03:49:31;99965.27;;;0.45;91.86
71996;BME280;59862;47.732;7.346;2024-01-27T03:51:59;99963.41;;;0.41;91.83
71996;BME280;59862;47.732;7.346;2024-01-27T03:54:26;99977.48;;;0.38;91.93
71996;BME280;59862;47.732;7.346;2024-01-27T03:56:54;99986.81;;;0.41;91.97
71996;BME280;59862;47.732;7.346;2024-01-27T03:59:22;99981.80;;;0.34;91.92
71996;BME280;59862;47.732;7.346;2024-01-27T04:01:49;99978.72;;;0.34;91.92
71996;BME280;59862;47.732;7.346;2024-01-27T04:04:17;99983.52;;;0.39;91.95
71996;BME280;59862;47.732;7.346;2024-01-27T04:06:44;99996.80;;;0.36;91.95
71996;BME280;59862;47.732;7.346;2024-01-27T04:09:12;99989.98;;;0.29;91.99
71996;BME280;59862;47.732;7.346;2024-01-27T04:11:39;99979.86;;;0.26;91.96
71996;BME280;59862;47.732;7.346;2024-01-27T04:14:07;99976.56;;;0.24;91.99
71996;BME280;59862;47.732;7.346;2024-01-27T04:16:34;99975.67;;;0.29;91.97
71996;BME280;59862;47.732;7.346;2024-01-27T04:19:02;99973.42;;;0.30;91.92
71996;BME280;59862;47.732;7.346;2024-01-27T04:21:29;99986.17;;;0.18;91.86
71996;BME280;59862;47.732;7.346;2024-01-27T04:23:57;99995.42;;;0.17;91.87
71996;BME280;59862;47.732;7.346;2024-01-27T04:26:24;99991.05;;;0.17;91.86
71996;BME280;59862;47.732;7.346;2024-01-27T04:28:51;99991.94;;;0.22;91.87
71996;BME280;59862;47.732;7.346;2024-01-27T04:31:19;99997.20;;;0.16;91.78
71996;BME280;59862;47.732;7.346;2024-01-27T04:33:46;99994.14;;;0.11;91.78
71996;BME280;59862;47.732;7.346;2024-01-27T04:36:14;99993.95;;;0.09;91.79
71996;BME280;59862;47.732;7.346;2024-01-27T04:38:43;100003.25;;;0.11;91.85
71996;BME280;59862;47.732;7.346;2024-01-27T04:41:10;100007.15;;;0.11;91.91
71996;BME280;59862;47.732;7.346;2024-01-27T04:43:38;100005.95;;;0.15;91.97
71996;BME280;59862;47.732;7.346;2024-01-27T04:46:06;100001.47;;;0.12;91.95
71996;BME280;59862;47.732;7.346;2024-01-27T04:48:34;100006.84;;;0.20;91.99
71996;BME280;59862;47.732;7.346;2024-01-27T04:51:01;100017.53;;;0.17;92.00
71996;BME280;59862;47.732;7.346;2024-01-27T04:53:28;100008.91;;;0.16;92.03
71996;BME280;59862;47.732;7.346;2024-01-27T04:55:56;99996.62;;;0.13;92.00
71996;BME280;59862;47.732;7.346;2024-01-27T04:58:23;99986.09;;;0.14;91.96
71996;BME280;59862;47.732;7.346;2024-01-27T05:00:50;99992.19;;;0.19;91.90
71996;BME280;59862;47.732;7.346;2024-01-27T05:03:18;100003.94;;;0.28;91.86
71996;BME280;59862;47.732;7.346;2024-01-27T05:05:46;100000.08;;;0.38;91.76
71996;BME280;59862;47.732;7.346;2024-01-27T05:08:13;100000.81;;;0.50;91.50
71996;BME280;59862;47.732;7.346;2024-01-27T05:10:41;99999.38;;;0.51;91.34
71996;BME280;59862;47.732;7.346;2024-01-27T05:13:08;99988.44;;;0.57;91.17
71996;BME280;59862;47.732;7.346;2024-01-27T05:15:36;100005.95;;;0.55;91.08
71996;BME280;59862;47.732;7.346;2024-01-27T05:18:03;100001.22;;;0.55;91.00
71996;BME280;59862;47.732;7.346;2024-01-27T05:20:31;100000.87;;;0.69;90.75
71996;BME280;59862;47.732;7.346;2024-01-27T05:22:58;99994.18;;;0.86;90.07
71996;BME280;59862;47.732;7.346;2024-01-27T05:25:25;99993.66;;;0.67;89.61
71996;BME280;59862;47.732;7.346;2024-01-27T05:27:53;99996.59;;;0.58;89.78
71996;BME280;59862;47.732;7.346;2024-01-27T05:30:20;100001.25;;;0.64;89.53
71996;BME280;59862;47.732;7.346;2024-01-27T05:32:48;100013.44;;;0.54;89.60
71996;BME280;59862;47.732;7.346;2024-01-27T05:35:15;100015.81;;;0.52;89.77
71996;BME280;59862;47.732;7.346;2024-01-27T05:37:43;100011.81;;;0.48;90.01
71996;BME280;59862;47.732;7.346;2024-01-27T05:40:10;100016.44;;;0.34;90.20
71996;BME280;59862;47.732;7.346;2024-01-27T05:42:38;100005.17;;;0.24;90.45
71996;BME280;59862;47.732;7.346;2024-01-27T05:45:07;100000.80;;;0.25;90.58
71996;BME280;59862;47.732;7.346;2024-01-27T05:47:36;100007.13;;;0.17;90.64
71996;BME280;59862;47.732;7.346;2024-01-27T05:50:04;100005.02;;;0.11;90.67
71996;BME280;59862;47.732;7.346;2024-01-27T05:52:34;100014.00;;;0.12;90.71
71996;BME280;59862;47.732;7.346;2024-01-27T05:55:02;100016.25;;;0.11;90.72
71996;BME280;59862;47.732;7.346;2024-01-27T05:57:31;100004.67;;;0.10;90.72
71996;BME280;59862;47.732;7.346;2024-01-27T05:59:59;100008.98;;;0.05;90.75
71996;BME280;59862;47.732;7.346;2024-01-27T06:02:26;100012.52;;;0.04;90.80
71996;BME280;59862;47.732;7.346;2024-01-27T06:04:54;100014.55;;;0.00;90.86
71996;BME280;59862;47.732;7.346;2024-01-27T06:07:21;100025.88;;;0.05;90.90
71996;BME280;59862;47.732;7.346;2024-01-27T06:09:49;100015.05;;;0.00;90.91
71996;BME280;59862;47.732;7.346;2024-01-27T06:12:16;100019.90;;;-0.01;90.95
71996;BME280;59862;47.732;7.346;2024-01-27T06:14:44;100020.42;;;0.08;91.01
71996;BME280;59862;47.732;7.346;2024-01-27T06:17:11;100021.25;;;0.24;90.78
71996;BME280;59862;47.732;7.346;2024-01-27T06:19:40;100011.32;;;0.23;90.69
71996;BME280;59862;47.732;7.346;2024-01-27T06:22:07;100014.52;;;0.21;90.63
71996;BME280;59862;47.732;7.346;2024-01-27T06:24:35;100007.25;;;0.15;90.60
71996;BME280;59862;47.732;7.346;2024-01-27T06:27:04;100013.70;;;0.21;90.60
71996;BME280;59862;47.732;7.346;2024-01-27T06:29:31;100014.75;;;0.24;90.52
71996;BME280;59862;47.732;7.346;2024-01-27T06:31:59;100012.22;;;0.28;90.49
71996;BME280;59862;47.732;7.346;2024-01-27T06:34:26;100018.52;;;0.25;90.45
71996;BME280;59862;47.732;7.346;2024-01-27T06:36:54;100019.17;;;0.18;90.39
71996;BME280;59862;47.732;7.346;2024-01-27T06:39:21;100019.97;;;0.18;90.38
71996;BME280;59862;47.732;7.346;2024-01-27T06:41:48;100033.91;;;0.23;90.39
71996;BME280;59862;47.732;7.346;2024-01-27T06:44:16;100025.40;;;0.21;90.34
71996;BME280;59862;47.732;7.346;2024-01-27T06:46:43;100022.14;;;0.28;90.35
71996;BME280;59862;47.732;7.346;2024-01-27T06:49:12;100019.83;;;0.25;90.21
71996;BME280;59862;47.732;7.346;2024-01-27T06:51:40;100019.66;;;0.17;90.25
71996;BME280;59862;47.732;7.346;2024-01-27T06:54:07;100020.55;;;0.22;90.22
71996;BME280;59862;47.732;7.346;2024-01-27T06:56:34;100031.15;;;0.09;90.12
71996;BME280;59862;47.732;7.346;2024-01-27T06:59:03;100036.17;;;0.01;90.31
71996;BME280;59862;47.732;7.346;2024-01-27T07:01:30;100032.74;;;0.00;90.40
71996;BME280;59862;47.732;7.346;2024-01-27T07:03:58;100031.67;;;0.03;90.37
71996;BME280;59862;47.732;7.346;2024-01-27T07:06:25;100027.55;;;0.00;90.38
71996;BME280;59862;47.732;7.346;2024-01-27T07:08:53;100029.66;;;0.07;90.37
71996;BME280;59862;47.732;7.346;2024-01-27T07:11:20;100025.62;;;0.08;90.31
71996;BME280;59862;47.732;7.346;2024-01-27T07:13:48;100028.17;;;-0.02;90.30
71996;BME280;59862;47.732;7.346;2024-01-27T07:16:15;100027.42;;;0.02;90.36
71996;BME280;59862;47.732;7.346;2024-01-27T07:18:42;100021.27;;;0.03;90.39
71996;BME280;59862;47.732;7.346;2024-01-27T07:21:15;100025.77;;;0.01;90.40
71996;BME280;59862;47.732;7.346;2024-01-27T07:23:40;100017.89;;;0.27;90.16
71996;BME280;59862;47.732;7.346;2024-01-27T07:26:09;100020.80;;;0.19;89.99
71996;BME280;59862;47.732;7.346;2024-01-27T07:28:38;100019.66;;;0.17;89.90
71996;BME280;59862;47.732;7.346;2024-01-27T07:31:06;100018.20;;;0.19;90.04
71996;BME280;59862;47.732;7.346;2024-01-27T07:33:34;100020.55;;;0.22;89.98
71996;BME280;59862;47.732;7.346;2024-01-27T07:36:04;100020.42;;;0.23;90.00
71996;BME280;59862;47.732;7.346;2024-01-27T07:38:31;100019.89;;;0.29;89.97
71996;BME280;59862;47.732;7.346;2024-01-27T07:40:59;100018.67;;;0.18;89.96
71996;BME280;59862;47.732;7.346;2024-01-27T07:43:26;100016.07;;;0.18;90.13
71996;BME280;59862;47.732;7.346;2024-01-27T07:45:53;100005.52;;;0.25;90.19
71996;BME280;59862;47.732;7.346;2024-01-27T07:48:21;100012.48;;;0.40;90.08
71996;BME280;59862;47.732;7.346;2024-01-27T07:50:49;100020.34;;;0.34;89.75
71996;BME280;59862;47.732;7.346;2024-01-27T07:53:17;100016.51;;;0.38;89.63
71996;BME280;59862;47.732;7.346;2024-01-27T07:55:44;100011.05;;;0.66;89.42
71996;BME280;59862;47.732;7.346;2024-01-27T07:58:12;100011.66;;;0.64;89.06
71996;BME280;59862;47.732;7.346;2024-01-27T08:00:39;100006.55;;;0.68;89.02
71996;BME280;59862;47.732;7.346;2024-01-27T08:03:06;100010.22;;;0.81;88.73
71996;BME280;59862;47.732;7.346;2024-01-27T08:05:34;100016.61;;;1.02;88.19
71996;BME280;59862;47.732;7.346;2024-01-27T08:08:01;100023.83;;;1.23;87.41
71996;BME280;59862;47.732;7.346;2024-01-27T08:10:29;100020.63;;;1.64;86.70
71996;BME280;59862;47.732;7.346;2024-01-27T08:12:56;100024.52;;;2.20;84.92
71996;BME280;59862;47.732;7.346;2024-01-27T08:15:24;100022.16;;;2.77;82.19
71996;BME280;59862;47.732;7.346;2024-01-27T08:17:51;100018.25;;;3.62;79.96
71996;BME280;59862;47.732;7.346;2024-01-27T08:20:19;100018.80;;;3.69;78.07
71996;BME280;59862;47.732;7.346;2024-01-27T08:22:46;100009.13;;;3.92;77.70
71996;BME280;59862;47.732;7.346;2024-01-27T08:25:15;100005.92;;;4.02;76.55
71996;BME280;59862;47.732;7.346;2024-01-27T08:27:43;99997.00;;;4.12;76.29
71996;BME280;59862;47.732;7.346;2024-01-27T08:30:12;99996.02;;;4.43;75.41
71996;BME280;59862;47.732;7.346;2024-01-27T08:32:39;99996.36;;;4.14;74.40
71996;BME280;59862;47.732;7.346;2024-01-27T08:35:07;100000.89;;;4.38;75.04
71996;BME280;59862;47.732;7.346;2024-01-27T08:37:35;100005.55;;;4.53;73.99
71996;BME280;59862;47.732;7.346;2024-01-27T08:40:06;100005.19;;;4.47;74.44
71996;BME280;59862;47.732;7.346;2024-01-27T08:42:34;100006.69;;;4.20;75.18
71996;BME280;59862;47.732;7.346;2024-01-27T08:45:02;100011.64;;;3.75;76.78
71996;BME280;59862;47.732;7.346;2024-01-27T08:47:29;100019.52;;;3.22;77.59
71996;BME280;59862;47.732;7.346;2024-01-27T08:49:57;100022.35;;;3.47;78.08
71996;BME280;59862;47.732;7.346;2024-01-27T08:52:24;100018.95;;;4.20;75.93
71996;BME280;59862;47.732;7.346;2024-01-27T08:54:52;100015.67;;;4.89;74.31
71996;BME280;59862;47.732;7.346;2024-01-27T08:57:19;100011.27;;;5.10;72.35
71996;BME280;59862;47.732;7.346;2024-01-27T08:59:47;100009.30;;;4.96;72.48
71996;BME280;59862;47.732;7.346;2024-01-27T09:02:14;99997.71;;;5.23;70.91
71996;BME280;59862;47.732;7.346;2024-01-27T09:04:41;99997.88;;;5.17;71.22
71996;BME280;59862;47.732;7.346;2024-01-27T09:07:09;100008.55;;;5.36;71.07
71996;BME280;59862;47.732;7.346;2024-01-27T09:09:36;100011.14;;;5.28;71.70
71996;BME280;59862;47.732;7.346;2024-01-27T09:12:06;100002.66;;;5.62;70.65
71996;BME280;59862;47.732;7.346;2024-01-27T09:14:33;100002.16;;;5.51;70.78
71996;BME280;59862;47.732;7.346;2024-01-27T09:17:01;99998.36;;;5.21;70.99
71996;BME280;59862;47.732;7.346;2024-01-27T09:19:29;99992.64;;;5.34;71.59
71996;BME280;59862;47.732;7.346;2024-01-27T09:21:56;99996.42;;;5.43;70.72
71996;BME280;59862;47.732;7.346;2024-01-27T09:24:24;100002.31;;;5.41;70.79
71996;BME280;59862;47.732;7.346;2024-01-27T09:26:51;100003.14;;;5.42;70.68
71996;BME280;59862;47.732;7.346;2024-01-27T09:29:18;99994.46;;;5.53;70.15
71996;BME280;59862;47.732;7.346;2024-01-27T09:31:46;99992.31;;;5.81;69.36
71996;BME280;59862;47.732;7.346;2024-01-27T09:34:14;99987.05;;;6.06;68.70
71996;BME280;59862;47.732;7.346;2024-01-27T09:36:41;99990.80;;;6.11;67.73
71996;BME280;59862;47.732;7.346;2024-01-27T09:39:09;100000.96;;;6.10;67.57
71996;BME280;59862;47.732;7.346;2024-01-27T09:41:37;100004.63;;;5.89;69.63
71996;BME280;59862;47.732;7.346;2024-01-27T09:44:05;99997.80;;;6.35;68.12
71996;BME280;59862;47.732;7.346;2024-01-27T09:46:33;99994.86;;;6.69;66.62
71996;BME280;59862;47.732;7.346;2024-01-27T09:49:02;99991.62;;;6.63;66.49
71996;BME280;59862;47.732;7.346;2024-01-27T09:51:29;99994.04;;;6.72;66.00
71996;BME280;59862;47.732;7.346;2024-01-27T09:53:57;99995.70;;;6.96;65.01
71996;BME280;59862;47.732;7.346;2024-01-27T09:56:25;99998.23;;;6.86;65.58
71996;BME280;59862;47.732;7.346;2024-01-27T09:58:53;100001.30;;;7.20;64.74
71996;BME280;59862;47.732;7.346;2024-01-27T10:01:22;99997.18;;;6.99;65.36
71996;BME280;59862;47.732;7.346;2024-01-27T10:03:52;99998.40;;;7.11;64.73
71996;BME280;59862;47.732;7.346;2024-01-27T10:06:21;99998.67;;;6.93;65.26
71996;BME280;59862;47.732;7.346;2024-01-27T10:08:54;100009.75;;;6.46;66.73
71996;BME280;59862;47.732;7.346;2024-01-27T10:11:23;100009.17;;;6.15;66.84
71996;BME280;59862;47.732;7.346;2024-01-27T10:13:57;100007.59;;;5.90;68.39
71996;BME280;59862;47.732;7.346;2024-01-27T10:16:39;100009.53;;;5.92;68.31
71996;BME280;59862;47.732;7.346;2024-01-27T10:19:03;99994.95;;;5.73;69.19
71996;BME280;59862;47.732;7.346;2024-01-27T10:21:31;99999.20;;;5.42;69.84
71996;BME280;59862;47.732;7.346;2024-01-27T10:24:00;100004.09;;;5.20;70.27
71996;BME280;59862;47.732;7.346;2024-01-27T10:26:32;99997.55;;;5.24;70.91
71996;BME280;59862;47.732;7.346;2024-01-27T10:29:01;99989.68;;;5.16;70.50
71996;BME280;59862;47.732;7.346;2024-01-27T10:31:31;99983.59;;;5.04;71.60
71996;BME280;59862;47.732;7.346;2024-01-27T10:33:58;99990.80;;;4.98;72.59
71996;BME280;59862;47.732;7.346;2024-01-27T10:36:41;99989.11;;;4.84;73.31
71996;BME280;59862;47.732;7.346;2024-01-27T10:39:21;99992.53;;;4.77;73.26
71996;BME280;59862;47.732;7.346;2024-01-27T10:41:50;99985.17;;;4.72;72.59
71996;BME280;59862;47.732;7.346;2024-01-27T10:44:19;99979.33;;;4.48;72.89
71996;BME280;59862;47.732;7.346;2024-01-27T10:46:48;99973.15;;;4.58;73.57
71996;BME280;59862;47.732;7.346;2024-01-27T10:49:17;99971.09;;;4.77;72.82
71996;BME280;59862;47.732;7.346;2024-01-27T10:51:56;99970.63;;;4.82;72.61
71996;BME280;59862;47.732;7.346;2024-01-27T10:54:23;99969.80;;;4.81;72.86
71996;BME280;59862;47.732;7.346;2024-01-27T10:56:46;99970.91;;;4.71;71.91
71996;BME280;59862;47.732;7.346;2024-01-27T10:59:16;99971.13;;;4.89;71.53
71996;BME280;59862;47.732;7.346;2024-01-27T11:01:46;99966.52;;;4.79;72.25
71996;BME280;59862;47.732;7.346;2024-01-27T11:04:15;99953.30;;;5.09;71.92
71996;BME280;59862;47.732;7.346;2024-01-27T11:06:43;99940.05;;;5.19;70.73
71996;BME280;59862;47.732;7.346;2024-01-27T11:09:12;99948.53;;;5.57;69.80
71996;BME280;59862;47.732;7.346;2024-01-27T11:11:45;99939.95;;;6.08;69.06
71996;BME280;59862;47.732;7.346;2024-01-27T11:14:13;99930.26;;;6.79;66.18
71996;BME280;59862;47.732;7.346;2024-01-27T11:16:41;99921.09;;;7.39;63.95
71996;BME280;59862;47.732;7.346;2024-01-27T11:19:13;99918.42;;;8.10;61.48
71996;BME280;59862;47.732;7.346;2024-01-27T11:21:41;99921.62;;;9.34;57.91
71996;BME280;59862;47.732;7.346;2024-01-27T11:24:18;99926.13;;;9.96;55.63
71996;BME280;59862;47.732;7.346;2024-01-27T11:26:46;99920.56;;;10.60;54.04
71996;BME280;59862;47.732;7.346;2024-01-27T11:29:13;99919.23;;;10.97;51.93
71996;BME280;59862;47.732;7.346;2024-01-27T11:31:47;99912.96;;;11.24;51.89
71996;BME280;59862;47.732;7.346;2024-01-27T11:34:17;99909.09;;;10.64;52.13
71996;BME280;59862;47.732;7.346;2024-01-27T11:36:46;99918.63;;;10.17;54.15
71996;BME280;59862;47.732;7.346;2024-01-27T11:39:31;99917.31;;;9.16;56.47
71996;BME280;59862;47.732;7.346;2024-01-27T11:42:07;99911.33;;;8.86;58.07
71996;BME280;59862;47.732;7.346;2024-01-27T11:44:36;99906.31;;;8.81;57.78
71996;BME280;59862;47.732;7.346;2024-01-27T11:47:04;99902.09;;;8.40;59.23
71996;BME280;59862;47.732;7.346;2024-01-27T11:49:33;99901.28;;;7.47;61.05
71996;BME280;59862;47.732;7.346;2024-01-27T11:52:01;99900.36;;;7.21;61.70
71996;BME280;59862;47.732;7.346;2024-01-27T11:54:29;99903.28;;;7.07;62.92
71996;BME280;59862;47.732;7.346;2024-01-27T11:56:56;99902.45;;;6.61;64.00
71996;BME280;59862;47.732;7.346;2024-01-27T11:59:24;99901.79;;;6.59;65.43
71996;BME280;59862;47.732;7.346;2024-01-27T12:01:51;99901.73;;;6.67;65.08
71996;BME280;59862;47.732;7.346;2024-01-27T12:04:18;99906.44;;;6.49;64.71
71996;BME280;59862;47.732;7.346;2024-01-27T12:06:47;99902.10;;;6.29;66.46
71996;BME280;59862;47.732;7.346;2024-01-27T12:09:15;99902.17;;;6.13;67.56
71996;BME280;59862;47.732;7.346;2024-01-27T12:11:44;99901.77;;;5.81;68.56
71996;BME280;59862;47.732;7.346;2024-01-27T12:14:12;99890.92;;;5.96;67.90
71996;BME280;59862;47.732;7.346;2024-01-27T12:16:40;99886.69;;;5.91;69.28
71996;BME280;59862;47.732;7.346;2024-01-27T12:19:09;99885.20;;;5.81;69.00
71996;BME280;59862;47.732;7.346;2024-01-27T12:21:38;99885.54;;;5.82;69.24
71996;BME280;59862;47.732;7.346;2024-01-27T12:24:05;99886.82;;;5.98;69.57
71996;BME280;59862;47.732;7.346;2024-01-27T12:26:35;99889.28;;;5.95;70.06
71996;BME280;59862;47.732;7.346;2024-01-27T12:29:04;99888.79;;;5.96;69.96
71996;BME280;59862;47.732;7.346;2024-01-27T12:31:33;99890.36;;;6.13;69.09
71996;BME280;59862;47.732;7.346;2024-01-27T12:34:00;99884.29;;;6.17;69.21
71996;BME280;59862;47.732;7.346;2024-01-27T12:36:28;99878.70;;;6.47;68.67
71996;BME280;59862;47.732;7.346;2024-01-27T12:39:00;99873.52;;;6.88;67.72
71996;BME280;59862;47.732;7.346;2024-01-27T12:41:30;99870.02;;;7.14;67.03
71996;BME280;59862;47.732;7.346;2024-01-27T12:43:59;99862.19;;;7.44;65.67
71996;BME280;59862;47.732;7.346;2024-01-27T12:46:27;99860.94;;;7.55;65.94
71996;BME280;59862;47.732;7.346;2024-01-27T12:48:54;99851.67;;;7.59;65.81
71996;BME280;59862;47.732;7.346;2024-01-27T12:51:22;99846.92;;;7.73;65.46
71996;BME280;59862;47.732;7.346;2024-01-27T12:53:50;99843.48;;;7.83;65.32
71996;BME280;59862;47.732;7.346;2024-01-27T12:56:18;99851.61;;;7.92;64.97
71996;BME280;59862;47.732;7.346;2024-01-27T12:58:46;99848.09;;;7.70;65.28
71996;BME280;59862;47.732;7.346;2024-01-27T13:01:13;99836.13;;;7.93;64.84
71996;BME280;59862;47.732;7.346;2024-01-27T13:03:42;99829.05;;;7.94;64.15
71996;BME280;59862;47.732;7.346;2024-01-27T13:06:09;99827.14;;;8.28;63.27
71996;BME280;59862;47.732;7.346;2024-01-27T13:08:37;99828.70;;;8.79;61.80
71996;BME280;59862;47.732;7.346;2024-01-27T13:11:05;99818.55;;;9.43;59.87